sensor_id;sensor_type;location;lat;lon;timestamp;pressure;altitude;pressure_sealevel;temperature;humidity
43436;BME280;36399;51.444;-2.018;2023-02-23T00:02:48;100837.66;;;1.34;100.00
43436;BME280;36399;51.444;-2.018;2023-02-23T00:05:16;100837.25;;;1.57;100.00
43436;BME280;36399;51.444;-2.018;2023-02-23T00:07:43;100850.28;;;1.75;100.00
43436;BME280;36399;51.444;-2.018;2023-02-23T00:10:12;100846.97;;;1.77;100.00
43436;BME280;36399;51.444;-2.018;2023-02-23T00:12:40;100850.47;;;1.78;100.00
43436;BME280;36399;51.444;-2.018;2023-02-23T00:15:08;100853.28;;;1.82;100.00
43436;BME280;36399;51.444;-2.018;2023-02-23T00:17:34;100854.91;;;1.97;100.00
43436;BME280;36399;51.444;-2.018;2023-02-23T00:20:10;100862.94;;;2.17;100.00
43436;BME280;36399;51.444;-2.018;2023-02-23T00:22:38;100866.56;;;2.37;100.00
43436;BME280;36399;51.444;-2.018;2023-02-23T00:25:06;100870.75;;;2.51;100.00
43436;BME280;36399;51.444;-2.018;2023-02-23T00:27:35;100883.31;;;2.60;100.00
43436;BME280;36399;51.444;-2.018;2023-02-23T00:30:03;100875.59;;;2.78;100.00
43436;BME280;36399;51.444;-2.018;2023-02-23T00:32:33;100873.88;;;2.78;100.00
43436;BME280;36399;51.444;-2.018;2023-02-23T00:34:59;100885.28;;;2.82;100.00
43436;BME280;36399;51.444;-2.018;2023-02-23T00:37:26;100883.66;;;2.84;100.00
43436;BME280;36399;51.444;-2.018;2023-02-23T00:39:55;100892.06;;;2.96;100.00
43436;BME280;36399;51.444;-2.018;2023-02-23T00:42:23;100898.94;;;2.96;100.00
43436;BME280;36399;51.444;-2.018;2023-02-23T00:44:52;100890.88;;;3.07;100.00
43436;BME280;36399;51.444;-2.018;2023-02-23T00:47:18;100892.03;;;3.12;100.00
43436;BME280;36399;51.444;-2.018;2023-02-23T00:49:44;100891.44;;;3.18;100.00
43436;BME280;36399;51.444;-2.018;2023-02-23T00:52:14;100895.38;;;3.28;100.00
43436;BME280;36399;51.444;-2.018;2023-02-23T00:57:16;100878.09;;;3.46;100.00
43436;BME280;36399;51.444;-2.018;2023-02-23T00:59:42;100880.44;;;3.59;100.00
43436;BME280;36399;51.444;-2.018;2023-02-23T01:02:08;100884.44;;;3.70;100.00
43436;BME280;36399;51.444;-2.018;2023-02-23T01:04:37;100886.38;;;3.74;100.00
43436;BME280;36399;51.444;-2.018;2023-02-23T01:07:04;100883.53;;;3.88;100.00
43436;BME280;36399;51.444;-2.018;2023-02-23T01:09:34;100878.69;;;3.95;100.00
43436;BME280;36399;51.444;-2.018;2023-02-23T01:12:00;100867.59;;;3.99;100.00
43436;BME280;36399;51.444;-2.018;2023-02-23T01:14:30;100878.28;;;4.05;100.00
43436;BME280;36399;51.444;-2.018;2023-02-23T01:16:56;100866.31;;;4.09;100.00
43436;BME280;36399;51.444;-2.018;2023-02-23T01:19:22;100869.78;;;4.09;100.00
43436;BME280;36399;51.444;-2.018;2023-02-23T01:21:48;100860.16;;;4.07;100.00
43436;BME280;36399;51.444;-2.018;2023-02-23T01:24:15;100860.56;;;4.16;100.00
43436;BME280;36399;51.444;-2.018;2023-02-23T01:26:43;100866.81;;;4.20;100.00
43436;BME280;36399;51.444;-2.018;2023-02-23T01:29:17;100859.84;;;4.19;100.00
43436;BME280;36399;51.444;-2.018;2023-02-23T01:31:46;100865.19;;;4.22;100.00
43436;BME280;36399;51.444;-2.018;2023-02-23T01:34:13;100861.75;;;4.23;100.00
43436;BME280;36399;51.444;-2.018;2023-02-23T01:36:42;100859.91;;;4.20;100.00
43436;BME280;36399;51.444;-2.018;2023-02-23T01:39:12;100859.78;;;4.17;100.00
43436;BME280;36399;51.444;-2.018;2023-02-23T01:41:38;100860.13;;;4.25;100.00
43436;BME280;36399;51.444;-2.018;2023-02-23T01:46:55;100862.50;;;4.20;100.00
43436;BME280;36399;51.444;-2.018;2023-02-23T01:49:26;100860.03;;;4.23;100.00
43436;BME280;36399;51.444;-2.018;2023-02-23T01:52:02;100856.63;;;4.24;100.00
43436;BME280;36399;51.444;-2.018;2023-02-23T01:54:32;100851.38;;;4.23;100.00
43436;BME280;36399;51.444;-2.018;2023-02-23T01:57:02;100843.78;;;4.27;100.00
43436;BME280;36399;51.444;-2.018;2023-02-23T01:59:45;100837.53;;;4.24;100.00
43436;BME280;36399;51.444;-2.018;2023-02-23T02:02:12;100844.53;;;4.25;100.00
43436;BME280;36399;51.444;-2.018;2023-02-23T02:04:41;100845.53;;;4.28;100.00
43436;BME280;36399;51.444;-2.018;2023-02-23T02:07:20;100836.16;;;4.32;100.00
43436;BME280;36399;51.444;-2.018;2023-02-23T02:09:50;100828.94;;;4.25;100.00
43436;BME280;36399;51.444;-2.018;2023-02-23T02:15:13;100831.34;;;4.20;100.00
43436;BME280;36399;51.444;-2.018;2023-02-23T02:20:51;100823.72;;;4.25;100.00
43436;BME280;36399;51.444;-2.018;2023-02-23T02:26:46;100819.16;;;4.19;100.00
43436;BME280;36399;51.444;-2.018;2023-02-23T02:32:05;100821.53;;;4.15;100.00
43436;BME280;36399;51.444;-2.018;2023-02-23T02:40:43;100822.97;;;4.08;100.00
43436;BME280;36399;51.444;-2.018;2023-02-23T02:43:30;100812.78;;;4.12;100.00
43436;BME280;36399;51.444;-2.018;2023-02-23T02:46:04;100824.94;;;4.13;100.00
43436;BME280;36399;51.444;-2.018;2023-02-23T03:18:54;100825.78;;;3.93;100.00
43436;BME280;36399;51.444;-2.018;2023-02-23T03:21:55;100836.09;;;3.92;100.00
43436;BME280;36399;51.444;-2.018;2023-02-23T03:24:52;100842.09;;;3.91;100.00
43436;BME280;36399;51.444;-2.018;2023-02-23T03:27:49;100835.28;;;3.93;100.00
43436;BME280;36399;51.444;-2.018;2023-02-23T03:30:56;100828.84;;;3.85;100.00
43436;BME280;36399;51.444;-2.018;2023-02-23T03:34:07;100832.47;;;3.88;100.00
43436;BME280;36399;51.444;-2.018;2023-02-23T03:37:03;100834.38;;;3.92;100.00
43436;BME280;36399;51.444;-2.018;2023-02-23T03:39:58;100835.00;;;3.87;100.00
43436;BME280;36399;51.444;-2.018;2023-02-23T03:42:49;100842.94;;;3.90;100.00
43436;BME280;36399;51.444;-2.018;2023-02-23T03:45:36;100835.06;;;3.88;100.00
43436;BME280;36399;51.444;-2.018;2023-02-23T03:48:22;100838.47;;;3.87;100.00
43436;BME280;36399;51.444;-2.018;2023-02-23T03:51:11;100841.97;;;3.88;100.00
43436;BME280;36399;51.444;-2.018;2023-02-23T03:54:14;100843.06;;;3.93;100.00
43436;BME280;36399;51.444;-2.018;2023-02-23T03:57:03;100852.50;;;3.91;100.00
43436;BME280;36399;51.444;-2.018;2023-02-23T03:59:56;100851.69;;;3.92;100.00
43436;BME280;36399;51.444;-2.018;2023-02-23T04:02:44;100854.00;;;3.86;100.00
43436;BME280;36399;51.444;-2.018;2023-02-23T04:05:30;100859.88;;;3.82;100.00
43436;BME280;36399;51.444;-2.018;2023-02-23T04:08:18;100859.88;;;3.82;100.00
43436;BME280;36399;51.444;-2.018;2023-02-23T04:11:18;100866.41;;;3.73;100.00
43436;BME280;36399;51.444;-2.018;2023-02-23T04:14:12;100869.69;;;3.69;100.00
43436;BME280;36399;51.444;-2.018;2023-02-23T04:16:41;100873.78;;;3.64;100.00
43436;BME280;36399;51.444;-2.018;2023-02-23T04:19:08;100885.94;;;3.65;100.00
43436;BME280;36399;51.444;-2.018;2023-02-23T04:21:34;100885.69;;;3.61;100.00
43436;BME280;36399;51.444;-2.018;2023-02-23T04:23:59;100894.38;;;3.61;100.00
43436;BME280;36399;51.444;-2.018;2023-02-23T04:26:25;100904.94;;;3.64;100.00
43436;BME280;36399;51.444;-2.018;2023-02-23T04:28:51;100903.72;;;3.58;100.00
43436;BME280;36399;51.444;-2.018;2023-02-23T04:31:17;100911.72;;;3.62;100.00
43436;BME280;36399;51.444;-2.018;2023-02-23T04:33:43;100926.34;;;3.60;100.00
43436;BME280;36399;51.444;-2.018;2023-02-23T04:36:09;100927.16;;;3.59;100.00
43436;BME280;36399;51.444;-2.018;2023-02-23T04:38:35;100929.84;;;3.61;100.00
43436;BME280;36399;51.444;-2.018;2023-02-23T04:41:01;100941.69;;;3.56;100.00
43436;BME280;36399;51.444;-2.018;2023-02-23T04:43:27;100937.69;;;3.62;100.00
43436;BME280;36399;51.444;-2.018;2023-02-23T04:45:53;100938.75;;;3.66;100.00
43436;BME280;36399;51.444;-2.018;2023-02-23T04:48:19;100952.56;;;3.65;100.00
43436;BME280;36399;51.444;-2.018;2023-02-23T04:50:45;100955.06;;;3.63;100.00
43436;BME280;36399;51.444;-2.018;2023-02-23T04:53:11;100960.34;;;3.65;100.00
43436;BME280;36399;51.444;-2.018;2023-02-23T04:55:37;100963.66;;;3.62;100.00
43436;BME280;36399;51.444;-2.018;2023-02-23T04:58:03;100969.75;;;3.63;100.00
43436;BME280;36399;51.444;-2.018;2023-02-23T05:00:29;100968.22;;;3.66;100.00
43436;BME280;36399;51.444;-2.018;2023-02-23T05:02:56;100971.44;;;3.62;100.00
43436;BME280;36399;51.444;-2.018;2023-02-23T05:05:22;100972.25;;;3.61;100.00
43436;BME280;36399;51.444;-2.018;2023-02-23T05:07:48;100977.63;;;3.64;100.00
43436;BME280;36399;51.444;-2.018;2023-02-23T05:10:14;100976.47;;;3.59;100.00
43436;BME280;36399;51.444;-2.018;2023-02-23T05:12:40;100976.56;;;3.61;100.00
43436;BME280;36399;51.444;-2.018;2023-02-23T05:15:06;100980.88;;;3.60;100.00
43436;BME280;36399;51.444;-2.018;2023-02-23T05:17:32;100986.72;;;3.56;100.00
43436;BME280;36399;51.444;-2.018;2023-02-23T05:19:58;100990.22;;;3.57;100.00
43436;BME280;36399;51.444;-2.018;2023-02-23T05:22:24;100997.91;;;3.55;100.00
43436;BME280;36399;51.444;-2.018;2023-02-23T05:24:50;100997.09;;;3.56;100.00
43436;BME280;36399;51.444;-2.018;2023-02-23T05:27:16;101004.81;;;3.55;100.00
43436;BME280;36399;51.444;-2.018;2023-02-23T05:29:42;101005.56;;;3.52;100.00
43436;BME280;36399;51.444;-2.018;2023-02-23T05:32:08;101011.56;;;3.51;100.00
43436;BME280;36399;51.444;-2.018;2023-02-23T05:34:34;101006.38;;;3.51;100.00
43436;BME280;36399;51.444;-2.018;2023-02-23T05:37:01;101016.69;;;3.49;100.00
43436;BME280;36399;51.444;-2.018;2023-02-23T05:39:27;101009.84;;;3.52;100.00
43436;BME280;36399;51.444;-2.018;2023-02-23T05:41:53;101016.59;;;3.48;100.00
43436;BME280;36399;51.444;-2.018;2023-02-23T05:44:19;101019.94;;;3.45;100.00
43436;BME280;36399;51.444;-2.018;2023-02-23T05:46:45;101023.44;;;3.46;100.00
43436;BME280;36399;51.444;-2.018;2023-02-23T05:49:14;101029.34;;;3.43;100.00
43436;BME280;36399;51.444;-2.018;2023-02-23T05:51:40;101033.06;;;3.48;100.00
43436;BME280;36399;51.444;-2.018;2023-02-23T05:54:08;101035.28;;;3.41;100.00
43436;BME280;36399;51.444;-2.018;2023-02-23T05:56:35;101037.22;;;3.45;100.00
43436;BME280;36399;51.444;-2.018;2023-02-23T05:59:01;101036.25;;;3.43;100.00
43436;BME280;36399;51.444;-2.018;2023-02-23T06:01:29;101032.09;;;3.46;100.00
43436;BME280;36399;51.444;-2.018;2023-02-23T06:03:55;101038.09;;;3.45;100.00
43436;BME280;36399;51.444;-2.018;2023-02-23T06:06:21;101041.53;;;3.44;100.00
43436;BME280;36399;51.444;-2.018;2023-02-23T06:08:48;101047.44;;;3.42;100.00
43436;BME280;36399;51.444;-2.018;2023-02-23T06:11:17;101045.00;;;3.45;100.00
43436;BME280;36399;51.444;-2.018;2023-02-23T06:13:43;101051.00;;;3.44;100.00
43436;BME280;36399;51.444;-2.018;2023-02-23T06:16:08;101060.66;;;3.46;100.00
43436;BME280;36399;51.444;-2.018;2023-02-23T06:18:36;101065.78;;;3.45;100.00
43436;BME280;36399;51.444;-2.018;2023-02-23T06:21:02;101060.72;;;3.48;100.00
43436;BME280;36399;51.444;-2.018;2023-02-23T06:23:31;101063.97;;;3.44;100.00
43436;BME280;36399;51.444;-2.018;2023-02-23T06:25:58;101067.63;;;3.47;100.00
43436;BME280;36399;51.444;-2.018;2023-02-23T06:28:25;101069.34;;;3.47;100.00
43436;BME280;36399;51.444;-2.018;2023-02-23T06:30:53;101065.91;;;3.48;100.00
43436;BME280;36399;51.444;-2.018;2023-02-23T06:33:19;101072.97;;;3.51;100.00
43436;BME280;36399;51.444;-2.018;2023-02-23T06:35:45;101072.09;;;3.50;100.00
43436;BME280;36399;51.444;-2.018;2023-02-23T06:38:11;101071.34;;;3.53;100.00
43436;BME280;36399;51.444;-2.018;2023-02-23T06:40:38;101075.94;;;3.58;100.00
43436;BME280;36399;51.444;-2.018;2023-02-23T06:43:04;101082.91;;;3.59;100.00
43436;BME280;36399;51.444;-2.018;2023-02-23T06:45:31;101076.09;;;3.61;100.00
43436;BME280;36399;51.444;-2.018;2023-02-23T06:48:00;101089.16;;;3.63;100.00
43436;BME280;36399;51.444;-2.018;2023-02-23T06:50:26;101088.28;;;3.62;100.00
43436;BME280;36399;51.444;-2.018;2023-02-23T06:52:52;101091.22;;;3.68;100.00
43436;BME280;36399;51.444;-2.018;2023-02-23T06:55:18;101094.91;;;3.73;100.00
43436;BME280;36399;51.444;-2.018;2023-02-23T06:57:47;101100.94;;;3.72;100.00
43436;BME280;36399;51.444;-2.018;2023-02-23T07:00:14;101085.34;;;3.72;100.00
43436;BME280;36399;51.444;-2.018;2023-02-23T07:02:42;101097.59;;;3.75;100.00
43436;BME280;36399;51.444;-2.018;2023-02-23T07:05:10;101096.84;;;3.77;100.00
43436;BME280;36399;51.444;-2.018;2023-02-23T07:07:36;101104.66;;;3.77;100.00
43436;BME280;36399;51.444;-2.018;2023-02-23T07:10:04;101105.69;;;3.81;100.00
43436;BME280;36399;51.444;-2.018;2023-02-23T07:12:30;101102.66;;;3.90;100.00
43436;BME280;36399;51.444;-2.018;2023-02-23T07:14:56;101108.66;;;3.89;100.00
43436;BME280;36399;51.444;-2.018;2023-02-23T07:17:22;101095.00;;;3.93;100.00
43436;BME280;36399;51.444;-2.018;2023-02-23T07:19:48;101103.63;;;3.92;100.00
43436;BME280;36399;51.444;-2.018;2023-02-23T07:22:14;101111.63;;;3.96;100.00
43436;BME280;36399;51.444;-2.018;2023-02-23T07:24:40;101116.97;;;3.99;100.00
43436;BME280;36399;51.444;-2.018;2023-02-23T07:27:06;101122.25;;;4.01;100.00
43436;BME280;36399;51.444;-2.018;2023-02-23T07:29:32;101116.25;;;4.02;100.00
43436;BME280;36399;51.444;-2.018;2023-02-23T07:32:00;101116.38;;;4.05;100.00
43436;BME280;36399;51.444;-2.018;2023-02-23T07:34:28;101125.81;;;4.03;100.00
43436;BME280;36399;51.444;-2.018;2023-02-23T07:36:56;101126.94;;;4.08;100.00
43436;BME280;36399;51.444;-2.018;2023-02-23T07:39:22;101128.88;;;4.12;100.00
43436;BME280;36399;51.444;-2.018;2023-02-23T07:41:48;101133.16;;;4.11;100.00
43436;BME280;36399;51.444;-2.018;2023-02-23T07:44:14;101130.09;;;4.19;100.00
43436;BME280;36399;51.444;-2.018;2023-02-23T07:46:40;101138.69;;;4.18;100.00
43436;BME280;36399;51.444;-2.018;2023-02-23T07:49:06;101148.34;;;4.20;100.00
43436;BME280;36399;51.444;-2.018;2023-02-23T07:51:32;101133.66;;;4.21;100.00
43436;BME280;36399;51.444;-2.018;2023-02-23T07:54:01;101139.88;;;4.24;100.00
43436;BME280;36399;51.444;-2.018;2023-02-23T07:56:29;101137.50;;;4.29;100.00
43436;BME280;36399;51.444;-2.018;2023-02-23T07:58:55;101133.22;;;4.29;100.00
43436;BME280;36399;51.444;-2.018;2023-02-23T08:01:21;101133.44;;;4.34;100.00
43436;BME280;36399;51.444;-2.018;2023-02-23T08:03:49;101125.84;;;4.38;100.00
43436;BME280;36399;51.444;-2.018;2023-02-23T08:06:16;101116.69;;;4.47;100.00
43436;BME280;36399;51.444;-2.018;2023-02-23T08:08:42;101107.34;;;4.50;100.00
43436;BME280;36399;51.444;-2.018;2023-02-23T08:11:09;101111.31;;;4.61;100.00
43436;BME280;36399;51.444;-2.018;2023-02-23T08:13:35;101118.69;;;4.70;100.00
43436;BME280;36399;51.444;-2.018;2023-02-23T08:16:01;101118.03;;;4.74;100.00
43436;BME280;36399;51.444;-2.018;2023-02-23T08:18:27;101106.53;;;4.88;100.00
43436;BME280;36399;51.444;-2.018;2023-02-23T08:21:01;101107.63;;;4.93;100.00
43436;BME280;36399;51.444;-2.018;2023-02-23T08:23:31;101108.31;;;4.89;100.00
43436;BME280;36399;51.444;-2.018;2023-02-23T08:25:58;101105.44;;;4.83;100.00
43436;BME280;36399;51.444;-2.018;2023-02-23T08:28:25;101106.25;;;4.82;100.00
43436;BME280;36399;51.444;-2.018;2023-02-23T08:30:51;101102.84;;;4.83;100.00
43436;BME280;36399;51.444;-2.018;2023-02-23T08:33:17;101078.47;;;4.81;100.00
43436;BME280;36399;51.444;-2.018;2023-02-23T08:35:43;101102.69;;;4.80;100.00
43436;BME280;36399;51.444;-2.018;2023-02-23T08:38:10;101103.25;;;4.73;100.00
43436;BME280;36399;51.444;-2.018;2023-02-23T08:40:36;101111.03;;;4.73;100.00
43436;BME280;36399;51.444;-2.018;2023-02-23T08:43:02;101105.97;;;4.76;100.00
43436;BME280;36399;51.444;-2.018;2023-02-23T08:45:28;101109.69;;;4.81;100.00
43436;BME280;36399;51.444;-2.018;2023-02-23T08:47:55;101117.41;;;4.80;100.00
43436;BME280;36399;51.444;-2.018;2023-02-23T08:50:21;101114.88;;;4.81;100.00
43436;BME280;36399;51.444;-2.018;2023-02-23T08:52:47;101109.75;;;4.83;100.00
43436;BME280;36399;51.444;-2.018;2023-02-23T08:55:13;101110.72;;;4.85;100.00
43436;BME280;36399;51.444;-2.018;2023-02-23T08:57:41;101107.22;;;4.84;100.00
43436;BME280;36399;51.444;-2.018;2023-02-23T09:00:07;101100.44;;;4.88;100.00
43436;BME280;36399;51.444;-2.018;2023-02-23T09:02:40;101081.06;;;4.81;100.00
43436;BME280;36399;51.444;-2.018;2023-02-23T09:05:06;101090.78;;;4.85;100.00
43436;BME280;36399;51.444;-2.018;2023-02-23T09:07:33;101092.16;;;4.77;100.00
43436;BME280;36399;51.444;-2.018;2023-02-23T09:09:59;101084.34;;;4.77;100.00
43436;BME280;36399;51.444;-2.018;2023-02-23T09:12:25;101099.97;;;4.77;100.00
43436;BME280;36399;51.444;-2.018;2023-02-23T09:14:50;101090.31;;;4.74;100.00
43436;BME280;36399;51.444;-2.018;2023-02-23T09:17:19;101097.16;;;4.72;100.00
43436;BME280;36399;51.444;-2.018;2023-02-23T09:19:45;101103.38;;;4.76;100.00
43436;BME280;36399;51.444;-2.018;2023-02-23T09:22:12;101099.13;;;4.78;100.00
43436;BME280;36399;51.444;-2.018;2023-02-23T09:24:38;101099.97;;;4.77;100.00
43436;BME280;36399;51.444;-2.018;2023-02-23T09:32:15;101098.38;;;4.81;100.00
43436;BME280;36399;51.444;-2.018;2023-02-23T09:48:41;101099.97;;;4.96;100.00
43436;BME280;36399;51.444;-2.018;2023-02-23T09:51:16;101095.44;;;4.92;100.00
43436;BME280;36399;51.444;-2.018;2023-02-23T09:58:54;101096.16;;;5.27;100.00
43436;BME280;36399;51.444;-2.018;2023-02-23T10:10:04;101113.53;;;5.87;100.00
43436;BME280;36399;51.444;-2.018;2023-02-23T10:37:03;101132.78;;;5.51;100.00
43436;BME280;36399;51.444;-2.018;2023-02-23T10:39:30;101151.13;;;5.54;100.00
43436;BME280;36399;51.444;-2.018;2023-02-23T10:41:59;101145.69;;;5.68;100.00
43436;BME280;36399;51.444;-2.018;2023-02-23T10:44:27;101152.84;;;5.73;100.00
43436;BME280;36399;51.444;-2.018;2023-02-23T10:47:18;101157.06;;;5.70;100.00
43436;BME280;36399;51.444;-2.018;2023-02-23T10:49:53;101159.47;;;5.66;100.00
43436;BME280;36399;51.444;-2.018;2023-02-23T10:52:34;101158.66;;;5.67;100.00
43436;BME280;36399;51.444;-2.018;2023-02-23T10:55:06;101155.03;;;5.63;100.00
43436;BME280;36399;51.444;-2.018;2023-02-23T10:57:36;101151.88;;;5.70;100.00
43436;BME280;36399;51.444;-2.018;2023-02-23T11:02:45;101147.00;;;5.97;100.00
43436;BME280;36399;51.444;-2.018;2023-02-23T11:05:45;101157.56;;;6.00;100.00
43436;BME280;36399;51.444;-2.018;2023-02-23T11:08:19;101155.63;;;6.17;100.00
43436;BME280;36399;51.444;-2.018;2023-02-23T11:11:00;101150.03;;;6.08;100.00
43436;BME280;36399;51.444;-2.018;2023-02-23T11:13:30;101145.47;;;6.03;100.00
43436;BME280;36399;51.444;-2.018;2023-02-23T11:16:03;101149.47;;;6.15;100.00
43436;BME280;36399;51.444;-2.018;2023-02-23T11:18:31;101146.38;;;6.03;100.00
43436;BME280;36399;51.444;-2.018;2023-02-23T11:20:57;101143.81;;;6.05;100.00
43436;BME280;36399;51.444;-2.018;2023-02-23T11:23:26;101138.09;;;6.13;100.00
43436;BME280;36399;51.444;-2.018;2023-02-23T11:25:59;101146.69;;;6.11;100.00
43436;BME280;36399;51.444;-2.018;2023-02-23T11:28:40;101150.38;;;5.95;100.00
43436;BME280;36399;51.444;-2.018;2023-02-23T11:31:18;101153.59;;;5.89;100.00
43436;BME280;36399;51.444;-2.018;2023-02-23T11:33:45;101156.41;;;5.94;100.00
43436;BME280;36399;51.444;-2.018;2023-02-23T11:36:25;101153.47;;;6.07;100.00
43436;BME280;36399;51.444;-2.018;2023-02-23T11:39:20;101156.66;;;6.00;100.00
43436;BME280;36399;51.444;-2.018;2023-02-23T11:42:12;101160.41;;;6.07;100.00
43436;BME280;36399;51.444;-2.018;2023-02-23T11:44:41;101152.53;;;6.05;100.00
43436;BME280;36399;51.444;-2.018;2023-02-23T11:47:15;101146.94;;;6.17;100.00
43436;BME280;36399;51.444;-2.018;2023-02-23T11:49:45;101159.03;;;6.36;100.00
43436;BME280;36399;51.444;-2.018;2023-02-23T11:52:16;101151.25;;;6.37;100.00
43436;BME280;36399;51.444;-2.018;2023-02-23T11:54:53;101158.69;;;6.49;100.00
43436;BME280;36399;51.444;-2.018;2023-02-23T11:57:22;101153.72;;;6.55;100.00
43436;BME280;36399;51.444;-2.018;2023-02-23T11:59:49;101146.91;;;6.58;100.00
43436;BME280;36399;51.444;-2.018;2023-02-23T12:02:18;101145.41;;;6.65;100.00
43436;BME280;36399;51.444;-2.018;2023-02-23T12:04:50;101143.75;;;6.67;100.00
43436;BME280;36399;51.444;-2.018;2023-02-23T12:10:20;101153.09;;;6.40;100.00
43436;BME280;36399;51.444;-2.018;2023-02-23T12:12:53;101150.84;;;6.26;100.00
43436;BME280;36399;51.444;-2.018;2023-02-23T12:15:29;101151.94;;;6.12;100.00
43436;BME280;36399;51.444;-2.018;2023-02-23T12:18:03;101151.81;;;6.09;100.00
43436;BME280;36399;51.444;-2.018;2023-02-23T12:20:42;101145.63;;;6.26;100.00
43436;BME280;36399;51.444;-2.018;2023-02-23T12:23:12;101156.88;;;6.25;100.00
43436;BME280;36399;51.444;-2.018;2023-02-23T12:29:29;101135.47;;;6.13;100.00
43436;BME280;36399;51.444;-2.018;2023-02-23T12:31:36;101145.47;;;6.23;100.00
43436;BME280;36399;51.444;-2.018;2023-02-23T12:34:25;101133.78;;;6.35;100.00
43436;BME280;36399;51.444;-2.018;2023-02-23T12:37:00;101134.97;;;6.43;100.00
43436;BME280;36399;51.444;-2.018;2023-02-23T12:39:39;101134.53;;;6.32;100.00
43436;BME280;36399;51.444;-2.018;2023-02-23T12:45:14;101141.44;;;6.52;100.00
43436;BME280;36399;51.444;-2.018;2023-02-23T12:47:52;101134.16;;;6.44;100.00
43436;BME280;36399;51.444;-2.018;2023-02-23T12:50:50;101140.78;;;6.36;100.00
43436;BME280;36399;51.444;-2.018;2023-02-23T12:53:22;101139.00;;;6.35;100.00
43436;BME280;36399;51.444;-2.018;2023-02-23T12:58:54;101142.91;;;6.46;100.00
43436;BME280;36399;51.444;-2.018;2023-02-23T13:12:24;101126.44;;;6.69;100.00
43436;BME280;36399;51.444;-2.018;2023-02-23T13:15:14;101139.84;;;6.56;100.00
43436;BME280;36399;51.444;-2.018;2023-02-23T13:17:56;101129.66;;;6.62;100.00
43436;BME280;36399;51.444;-2.018;2023-02-23T13:20:48;101127.63;;;6.55;100.00
43436;BME280;36399;51.444;-2.018;2023-02-23T13:23:29;101134.28;;;6.47;100.00
43436;BME280;36399;51.444;-2.018;2023-02-23T13:29:01;101137.47;;;6.40;100.00
43436;BME280;36399;51.444;-2.018;2023-02-23T13:31:30;101145.75;;;6.29;100.00
43436;BME280;36399;51.444;-2.018;2023-02-23T13:34:02;101137.03;;;6.29;100.00
43436;BME280;36399;51.444;-2.018;2023-02-23T13:36:30;101136.56;;;6.18;100.00
43436;BME280;36399;51.444;-2.018;2023-02-23T13:41:40;101125.59;;;6.25;100.00
43436;BME280;36399;51.444;-2.018;2023-02-23T13:47:55;101120.22;;;6.43;100.00
43436;BME280;36399;51.444;-2.018;2023-02-23T13:50:22;101116.97;;;6.49;100.00
43436;BME280;36399;51.444;-2.018;2023-02-23T13:52:55;101113.53;;;6.50;100.00
43436;BME280;36399;51.444;-2.018;2023-02-23T13:58:09;101108.53;;;6.56;100.00
43436;BME280;36399;51.444;-2.018;2023-02-23T14:00:40;101111.44;;;6.63;100.00
43436;BME280;36399;51.444;-2.018;2023-02-23T14:03:21;101119.56;;;6.71;100.00
43436;BME280;36399;51.444;-2.018;2023-02-23T14:05:51;101123.97;;;6.94;100.00
43436;BME280;36399;51.444;-2.018;2023-02-23T14:08:30;101118.31;;;7.06;100.00
43436;BME280;36399;51.444;-2.018;2023-02-23T14:10:57;101118.41;;;6.85;100.00
43436;BME280;36399;51.444;-2.018;2023-02-23T14:13:27;101112.81;;;6.76;100.00
43436;BME280;36399;51.444;-2.018;2023-02-23T14:16:16;101111.50;;;6.65;100.00
43436;BME280;36399;51.444;-2.018;2023-02-23T14:18:53;101121.00;;;6.63;100.00
43436;BME280;36399;51.444;-2.018;2023-02-23T14:21:33;101120.75;;;6.57;100.00
43436;BME280;36399;51.444;-2.018;2023-02-23T14:24:24;101119.63;;;6.50;100.00
43436;BME280;36399;51.444;-2.018;2023-02-23T14:29:42;101128.28;;;6.49;100.00
43436;BME280;36399;51.444;-2.018;2023-02-23T14:34:57;101125.97;;;6.57;100.00
43436;BME280;36399;51.444;-2.018;2023-02-23T14:42:37;101136.09;;;6.49;100.00
43436;BME280;36399;51.444;-2.018;2023-02-23T14:45:25;101141.25;;;6.48;100.00
43436;BME280;36399;51.444;-2.018;2023-02-23T14:48:00;101141.19;;;6.46;100.00
43436;BME280;36399;51.444;-2.018;2023-02-23T14:50:31;101147.53;;;6.30;100.00
43436;BME280;36399;51.444;-2.018;2023-02-23T14:52:58;101143.19;;;6.31;100.00
43436;BME280;36399;51.444;-2.018;2023-02-23T14:55:27;101142.31;;;6.30;100.00
43436;BME280;36399;51.444;-2.018;2023-02-23T14:57:54;101149.44;;;6.35;100.00
43436;BME280;36399;51.444;-2.018;2023-02-23T15:00:24;101143.84;;;6.25;100.00
43436;BME280;36399;51.444;-2.018;2023-02-23T15:03:11;101150.00;;;6.27;100.00
43436;BME280;36399;51.444;-2.018;2023-02-23T15:05:55;101158.50;;;6.23;100.00
43436;BME280;36399;51.444;-2.018;2023-02-23T15:08:26;101156.94;;;6.27;100.00
43436;BME280;36399;51.444;-2.018;2023-02-23T15:11:09;101162.22;;;6.28;100.00
43436;BME280;36399;51.444;-2.018;2023-02-23T15:16:17;101156.41;;;6.36;100.00
43436;BME280;36399;51.444;-2.018;2023-02-23T15:42:12;101143.06;;;6.28;100.00
43436;BME280;36399;51.444;-2.018;2023-02-23T15:44:40;101142.13;;;6.26;100.00
43436;BME280;36399;51.444;-2.018;2023-02-23T15:49:42;101143.25;;;6.32;100.00
43436;BME280;36399;51.444;-2.018;2023-02-23T16:08:34;101134.84;;;6.40;100.00
43436;BME280;36399;51.444;-2.018;2023-02-23T16:14:00;101142.28;;;6.51;100.00
43436;BME280;36399;51.444;-2.018;2023-02-23T16:16:27;101136.31;;;6.99;100.00
43436;BME280;36399;51.444;-2.018;2023-02-23T16:18:56;101135.03;;;7.34;100.00
43436;BME280;36399;51.444;-2.018;2023-02-23T16:21:28;101130.44;;;7.28;100.00
43436;BME280;36399;51.444;-2.018;2023-02-23T16:23:59;101130.91;;;6.94;100.00
43436;BME280;36399;51.444;-2.018;2023-02-23T16:26:35;101119.69;;;6.74;100.00
43436;BME280;36399;51.444;-2.018;2023-02-23T16:29:09;101123.13;;;6.95;100.00
43436;BME280;36399;51.444;-2.018;2023-02-23T17:00:26;101129.53;;;5.95;100.00